Time;durP1;ratioP1;P1;durP2;ratioP2;P2;SDS_P1;SDS_P2;PMS_P1;PMS_P2;Temp;Humidity;BMP_temperature;BMP_pressure;BME280_temperature;BME280_humidity;BME280_pressure;Samples;Min_cycle;Max_cycle;Signal;HPM_P1;HPM_P2
2021/05/23 00:01:06;;;;;;;2.08;1.20;;;;;;;;;;5089014;28;20563;-83
2021/05/23 00:03:34;;;;;;;6.43;1.67;;;;;;;;;;5084277;28;20066;-82
2021/05/23 00:06:02;;;;;;;3.25;1.55;;;;;;;;;;5080634;28;20036;-82
2021/05/23 00:08:31;;;;;;;4.70;1.63;;;;;;;;;;5093745;28;20044;-83
2021/05/23 00:11:05;;;;;;;1.88;1.30;;;;;;;;;;5094448;28;20331;-82
2021/05/23 00:13:34;;;;;;;4.55;1.60;;;;;;;;;;5092506;28;20044;-83
2021/05/23 00:16:03;;;;;;;2.28;1.25;;;;;;;;;;5093966;28;20052;-83
2021/05/23 00:18:32;;;;;;;5.90;1.48;;;;;;;;;;5081216;28;20075;-83
2021/05/23 00:21:00;;;;;;;7.03;1.50;;;;;;;;;;5073216;28;20158;-84
2021/05/23 00:23:28;;;;;;;5.65;1.38;;;;;;;;;;5093190;28;20075;-82
2021/05/23 00:25:57;;;;;;;4.35;1.73;;;;;;;;;;5102054;28;20048;-83
2021/05/23 00:28:25;;;;;;;6.10;1.65;;;;;;;;;;5084590;28;20097;-82
2021/05/23 00:30:53;;;;;;;3.05;1.67;;;;;;;;;;5093553;28;20051;-82
2021/05/23 00:33:21;;;;;;;4.88;1.58;;;;;;;;;;5091624;28;20098;-83
2021/05/23 00:35:48;;;;;;;2.58;1.23;;;;;;;;;;5094725;28;20044;-83
2021/05/23 00:38:16;;;;;;;4.30;1.40;;;;;;;;;;5080362;28;20051;-82
2021/05/23 00:40:44;;;;;;;2.15;1.30;;;;;;;;;;5091322;28;20548;-82
2021/05/23 00:43:15;;;;;;;4.03;1.60;;;;;;;;;;5082554;28;20128;-83
2021/05/23 00:45:45;;;;;;;3.17;1.20;;;;;;;;;;5090907;28;20052;-84
2021/05/23 00:48:13;;;;;;;3.22;1.52;;;;;;;;;;5090061;28;20368;-83
2021/05/23 00:50:41;;;;;;;2.53;1.30;;;;;;;;;;5094482;28;20116;-83
2021/05/23 00:53:09;;;;;;;2.65;1.35;;;;;;;;;;5091424;28;20459;-83
2021/05/23 00:55:36;;;;;;;5.60;1.50;;;;;;;;;;5090670;28;20590;-83
2021/05/23 00:58:04;;;;;;;2.42;1.30;;;;;;;;;;5087766;28;20458;-83
2021/05/23 01:00:48;;;;;;;3.58;1.35;;;;;;;;;;5091354;28;20244;-83
2021/05/23 01:03:43;;;;;;;4.75;1.35;;;;;;;;;;5077818;22;20055;-65
2021/05/23 01:06:12;;;;;;;3.40;1.43;;;;;;;;;;5032245;28;20061;-65
2021/05/23 01:08:40;;;;;;;3.83;1.35;;;;;;;;;;5032618;28;20093;-65
2021/05/23 01:11:08;;;;;;;5.57;1.27;;;;;;;;;;5032940;28;20056;-65
2021/05/23 01:14:09;;;;;;;2.58;1.20;;;;;;;;;;5034217;28;20045;-65
2021/05/23 01:16:37;;;;;;;5.13;1.33;;;;;;;;;;4953138;29;20051;-65
2021/05/23 01:19:09;;;;;;;3.60;1.33;;;;;;;;;;4952635;29;20090;-65
2021/05/23 01:21:39;;;;;;;2.85;1.20;;;;;;;;;;4991291;28;20100;-65
2021/05/23 01:24:12;;;;;;;4.68;1.38;;;;;;;;;;5032453;28;20405;-65
2021/05/23 01:26:44;;;;;;;3.53;1.60;;;;;;;;;;5032200;28;20452;-65
2021/05/23 01:29:12;;;;;;;7.25;1.60;;;;;;;;;;5032239;28;20085;-65
2021/05/23 01:31:41;;;;;;;3.40;1.38;;;;;;;;;;5032398;28;20113;-65
2021/05/23 01:34:09;;;;;;;4.85;1.35;;;;;;;;;;5032563;28;20492;-65
2021/05/23 01:36:37;;;;;;;2.83;1.40;;;;;;;;;;5032759;28;20050;-65
2021/05/23 01:39:07;;;;;;;3.45;1.30;;;;;;;;;;5032281;28;20088;-65
2021/05/23 01:41:35;;;;;;;4.47;1.40;;;;;;;;;;5033167;28;20045;-65
2021/05/23 01:44:05;;;;;;;4.78;1.35;;;;;;;;;;5032506;28;20045;-65
2021/05/23 01:46:33;;;;;;;1.70;1.10;;;;;;;;;;5032788;28;20041;-66
2021/05/23 01:49:00;;;;;;;11.48;1.50;;;;;;;;;;5034998;28;20088;-65
2021/05/23 01:51:28;;;;;;;3.88;1.40;;;;;;;;;;5037140;28;20121;-65
2021/05/23 01:53:56;;;;;;;2.50;1.17;;;;;;;;;;5035967;28;20483;-65
2021/05/23 01:56:24;;;;;;;2.17;1.17;;;;;;;;;;5035998;28;20093;-65
2021/05/23 01:58:52;;;;;;;3.67;1.23;;;;;;;;;;5036009;28;20084;-65
2021/05/23 02:01:21;;;;;;;1.58;1.10;;;;;;;;;;5036330;28;20103;-65
2021/05/23 02:03:49;;;;;;;2.80;1.40;;;;;;;;;;5043769;28;20049;-65
2021/05/23 02:06:17;;;;;;;2.20;1.10;;;;;;;;;;5049334;28;20059;-65
2021/05/23 02:08:45;;;;;;;2.75;1.10;;;;;;;;;;5049374;28;20131;-65
2021/05/23 02:11:13;;;;;;;4.85;1.30;;;;;;;;;;5055354;28;20492;-65
2021/05/23 02:13:41;;;;;;;2.80;1.52;;;;;;;;;;5050388;28;20052;-65
2021/05/23 02:16:10;;;;;;;4.85;1.48;;;;;;;;;;5037125;28;20056;-65
2021/05/23 02:18:38;;;;;;;5.13;1.17;;;;;;;;;;5047806;28;20045;-65
2021/05/23 02:21:07;;;;;;;1.52;1.02;;;;;;;;;;5048614;28;20130;-65
2021/05/23 02:23:35;;;;;;;2.22;1.20;;;;;;;;;;5049293;28;20056;-65
2021/05/23 02:26:02;;;;;;;2.67;1.17;;;;;;;;;;5048732;28;20551;-66
2021/05/23 02:28:30;;;;;;;2.50;1.65;;;;;;;;;;5051587;28;20539;-65
2021/05/23 02:30:58;;;;;;;3.20;1.13;;;;;;;;;;5050781;28;20127;-65
2021/05/23 02:33:27;;;;;;;3.05;1.33;;;;;;;;;;5051587;28;20469;-65
2021/05/23 02:35:57;;;;;;;2.83;1.45;;;;;;;;;;5052374;28;20056;-65
2021/05/23 02:38:26;;;;;;;3.20;1.35;;;;;;;;;;5051472;28;20207;-65
2021/05/23 02:40:53;;;;;;;2.50;1.60;;;;;;;;;;5052669;28;20068;-65
2021/05/23 02:43:24;;;;;;;3.30;1.60;;;;;;;;;;5052436;28;20457;-65
2021/05/23 02:45:52;;;;;;;3.30;1.27;;;;;;;;;;5051956;28;20114;-65
2021/05/23 02:48:20;;;;;;;1.98;1.10;;;;;;;;;;5052500;28;20069;-65
2021/05/23 02:50:49;;;;;;;3.55;1.30;;;;;;;;;;5052148;28;20091;-65
2021/05/23 02:53:17;;;;;;;2.58;1.25;;;;;;;;;;5052334;28;20076;-65
2021/05/23 02:55:46;;;;;;;3.17;1.50;;;;;;;;;;5051860;28;20052;-66
2021/05/23 02:58:14;;;;;;;2.63;1.35;;;;;;;;;;5051278;28;20056;-66
2021/05/23 03:00:42;;;;;;;2.80;1.52;;;;;;;;;;5051388;28;20110;-66
2021/05/23 03:03:10;;;;;;;4.32;1.25;;;;;;;;;;5052056;28;20103;-66
2021/05/23 03:05:38;;;;;;;2.55;1.40;;;;;;;;;;5067943;28;20473;-66
2021/05/23 03:08:06;;;;;;;3.65;1.45;;;;;;;;;;5051034;28;20100;-66
2021/05/23 03:10:36;;;;;;;2.47;1.15;;;;;;;;;;5051659;28;20088;-66
2021/05/23 03:13:04;;;;;;;1.85;1.25;;;;;;;;;;5051102;28;20084;-66
2021/05/23 03:15:33;;;;;;;5.32;1.38;;;;;;;;;;5063578;28;20707;-66
2021/05/23 03:18:02;;;;;;;8.63;1.30;;;;;;;;;;5050585;28;20460;-66
2021/05/23 03:20:30;;;;;;;3.60;1.20;;;;;;;;;;5051436;28;20507;-66
2021/05/23 03:22:58;;;;;;;2.95;1.20;;;;;;;;;;5051893;28;20108;-66
2021/05/23 03:25:28;;;;;;;5.50;1.50;;;;;;;;;;5051010;28;20041;-66
2021/05/23 03:27:57;;;;;;;3.20;1.40;;;;;;;;;;5050715;28;20123;-66
2021/05/23 03:30:27;;;;;;;2.33;1.23;;;;;;;;;;5050272;28;20127;-66
2021/05/23 03:32:54;;;;;;;2.72;2.05;;;;;;;;;;5050734;28;20103;-66
2021/05/23 03:35:22;;;;;;;5.13;0.90;;;;;;;;;;5050343;28;20045;-67
2021/05/23 03:37:50;;;;;;;5.60;1.10;;;;;;;;;;5050743;28;20076;-66
2021/05/23 03:40:19;;;;;;;2.75;1.23;;;;;;;;;;5051604;28;20072;-66
2021/05/23 03:42:47;;;;;;;4.65;1.38;;;;;;;;;;5051910;28;20107;-66
2021/05/23 03:45:16;;;;;;;4.10;1.42;;;;;;;;;;5044585;28;20085;-66
2021/05/23 03:47:44;;;;;;;4.30;1.13;;;;;;;;;;5050281;28;20357;-66
2021/05/23 03:50:13;;;;;;;5.13;1.33;;;;;;;;;;5050481;28;20483;-66
2021/05/23 03:52:41;;;;;;;2.80;1.10;;;;;;;;;;5051500;28;20045;-66
2021/05/23 03:55:10;;;;;;;3.78;1.10;;;;;;;;;;5051048;28;20049;-66
2021/05/23 03:57:37;;;;;;;2.22;1.00;;;;;;;;;;5053999;28;20087;-66
2021/05/23 04:00:06;;;;;;;2.83;0.95;;;;;;;;;;5049464;28;20084;-66
2021/05/23 04:02:35;;;;;;;2.08;1.00;;;;;;;;;;5049239;28;20103;-66
2021/05/23 04:05:04;;;;;;;2.90;1.10;;;;;;;;;;5050932;28;20057;-66
2021/05/23 04:07:32;;;;;;;3.72;1.30;;;;;;;;;;5050006;28;20141;-66
2021/05/23 04:10:03;;;;;;;1.50;1.00;;;;;;;;;;5050063;28;20052;-66
2021/05/23 04:12:33;;;;;;;2.35;0.90;;;;;;;;;;5046985;28;20072;-66
2021/05/23 04:15:01;;;;;;;2.35;1.10;;;;;;;;;;5050113;28;20080;-66
2021/05/23 04:17:29;;;;;;;1.27;1.17;;;;;;;;;;5054493;28;20123;-66
2021/05/23 04:19:58;;;;;;;1.38;0.80;;;;;;;;;;5046984;28;20049;-66
2021/05/23 04:22:26;;;;;;;1.67;0.93;;;;;;;;;;5049120;28;20037;-66
2021/05/23 04:24:54;;;;;;;3.15;0.90;;;;;;;;;;5050456;28;20040;-66
2021/05/23 04:27:22;;;;;;;1.75;0.70;;;;;;;;;;5049628;28;20124;-67
2021/05/23 04:29:50;;;;;;;1.00;0.90;;;;;;;;;;5050084;28;20057;-67
2021/05/23 04:32:18;;;;;;;2.60;0.68;;;;;;;;;;5049200;28;20041;-67
2021/05/23 04:34:45;;;;;;;1.88;0.77;;;;;;;;;;5049340;28;20508;-66
2021/05/23 04:37:15;;;;;;;2.15;0.50;;;;;;;;;;5048539;28;20496;-67
2021/05/23 04:39:43;;;;;;;0.80;0.40;;;;;;;;;;5050429;28;20053;-66
2021/05/23 04:42:11;;;;;;;1.27;0.50;;;;;;;;;;5050287;28;20079;-66
2021/05/23 04:44:59;;;;;;;0.68;0.50;;;;;;;;;;5033652;28;20041;-66
2021/05/23 04:47:28;;;;;;;0.93;0.40;;;;;;;;;;5049571;28;20080;-66
2021/05/23 04:49:57;;;;;;;2.55;0.50;;;;;;;;;;5050300;28;20416;-66
2021/05/23 04:52:25;;;;;;;1.83;0.50;;;;;;;;;;5048971;28;20041;-66
2021/05/23 04:54:53;;;;;;;1.80;0.40;;;;;;;;;;5049262;28;20069;-66
2021/05/23 04:57:21;;;;;;;0.43;0.43;;;;;;;;;;5049331;28;20060;-66
2021/05/23 04:59:51;;;;;;;1.00;0.40;;;;;;;;;;5050101;28;20128;-66
2021/05/23 05:02:19;;;;;;;1.35;0.50;;;;;;;;;;5049628;28;20136;-66
2021/05/23 05:04:47;;;;;;;0.50;0.50;;;;;;;;;;5049548;28;20115;-67
2021/05/23 05:07:15;;;;;;;2.05;0.50;;;;;;;;;;5049011;28;20065;-66
2021/05/23 05:09:44;;;;;;;2.25;0.40;;;;;;;;;;5049718;28;20061;-66
2021/05/23 05:12:12;;;;;;;1.08;0.43;;;;;;;;;;5049586;28;20075;-67
2021/05/23 05:14:39;;;;;;;1.02;0.40;;;;;;;;;;5048654;28;20161;-67
2021/05/23 05:17:07;;;;;;;1.95;0.65;;;;;;;;;;5049863;28;20080;-67
2021/05/23 05:19:35;;;;;;;0.50;0.30;;;;;;;;;;5049252;28;20191;-67
2021/05/23 05:22:03;;;;;;;2.15;0.50;;;;;;;;;;5049697;28;20080;-67
2021/05/23 05:24:31;;;;;;;0.30;0.30;;;;;;;;;;5057229;28;20128;-67
2021/05/23 05:27:00;;;;;;;0.47;0.30;;;;;;;;;;5056137;28;20045;-67
2021/05/23 05:29:27;;;;;;;1.48;0.40;;;;;;;;;;5053210;28;20107;-67
2021/05/23 05:31:55;;;;;;;0.32;0.32;;;;;;;;;;5053231;28;20103;-66
2021/05/23 05:34:23;;;;;;;1.13;0.43;;;;;;;;;;5051695;28;20166;-67
2021/05/23 05:36:51;;;;;;;1.55;0.43;;;;;;;;;;5051856;28;20407;-67
2021/05/23 05:39:19;;;;;;;0.55;0.40;;;;;;;;;;5052872;28;20490;-66
2021/05/23 05:41:46;;;;;;;3.17;0.40;;;;;;;;;;5052565;28;20073;-66
2021/05/23 05:44:15;;;;;;;0.90;0.30;;;;;;;;;;5052688;28;20049;-66
2021/05/23 05:46:43;;;;;;;1.33;0.30;;;;;;;;;;5052290;28;20052;-67
2021/05/23 05:49:11;;;;;;;0.55;0.30;;;;;;;;;;5051061;28;20067;-66
2021/05/23 05:51:38;;;;;;;0.40;0.40;;;;;;;;;;5049476;28;20468;-66
2021/05/23 05:54:06;;;;;;;1.75;0.38;;;;;;;;;;5048884;28;20042;-66
2021/05/23 05:56:34;;;;;;;0.50;0.40;;;;;;;;;;5048976;28;20045;-66
2021/05/23 05:59:02;;;;;;;0.30;0.30;;;;;;;;;;5049175;28;20132;-66
2021/05/23 06:01:31;;;;;;;0.52;0.30;;;;;;;;;;5047509;28;20269;-66
2021/05/23 06:03:59;;;;;;;0.50;0.20;;;;;;;;;;5048381;28;20049;-66
2021/05/23 06:06:27;;;;;;;0.47;0.40;;;;;;;;;;5048357;28;20160;-66
2021/05/23 06:08:55;;;;;;;0.30;0.30;;;;;;;;;;5049074;28;20128;-66
2021/05/23 06:11:30;;;;;;;0.20;0.20;;;;;;;;;;5049868;28;20127;-66
2021/05/23 06:13:58;;;;;;;0.82;0.30;;;;;;;;;;5048103;28;20544;-66
2021/05/23 06:16:26;;;;;;;0.20;0.20;;;;;;;;;;5047641;28;20443;-66
2021/05/23 06:18:55;;;;;;;0.47;0.10;;;;;;;;;;5048815;28;20107;-66
2021/05/23 06:21:22;;;;;;;0.20;0.17;;;;;;;;;;5048314;28;20053;-67
2021/05/23 06:23:51;;;;;;;0.88;0.30;;;;;;;;;;5050104;28;20076;-66
2021/05/23 06:26:18;;;;;;;0.95;0.20;;;;;;;;;;5049290;28;20106;-67
2021/05/23 06:28:46;;;;;;;0.55;0.35;;;;;;;;;;5048454;28;20102;-66
2021/05/23 06:31:14;;;;;;;0.47;0.30;;;;;;;;;;5049119;28;20538;-66
2021/05/23 06:33:42;;;;;;;0.45;0.22;;;;;;;;;;5047785;28;20558;-66
2021/05/23 06:36:11;;;;;;;0.25;0.20;;;;;;;;;;5047106;28;20172;-66
2021/05/23 06:38:39;;;;;;;3.40;0.65;;;;;;;;;;5048323;28;20571;-66
2021/05/23 06:41:07;;;;;;;0.85;0.30;;;;;;;;;;5047283;28;20461;-66
2021/05/23 06:43:35;;;;;;;0.20;0.20;;;;;;;;;;5049048;28;20493;-66
2021/05/23 06:46:03;;;;;;;0.43;0.25;;;;;;;;;;5046875;28;20391;-67
2021/05/23 06:48:31;;;;;;;0.30;0.20;;;;;;;;;;5048136;28;20774;-67
2021/05/23 06:51:00;;;;;;;2.20;0.22;;;;;;;;;;5049369;28;20081;-66
2021/05/23 06:53:28;;;;;;;2.67;0.32;;;;;;;;;;5048280;28;20099;-66
2021/05/23 06:55:57;;;;;;;0.52;0.20;;;;;;;;;;5047869;28;20126;-66
2021/05/23 06:58:25;;;;;;;1.02;0.30;;;;;;;;;;5046156;28;20053;-66
2021/05/23 07:00:53;;;;;;;0.75;0.30;;;;;;;;;;5045078;28;20046;-66
2021/05/23 07:03:21;;;;;;;0.25;0.20;;;;;;;;;;5047255;28;20160;-67
2021/05/23 07:05:49;;;;;;;0.60;0.20;;;;;;;;;;5046519;28;20346;-66
2021/05/23 07:08:18;;;;;;;0.30;0.10;;;;;;;;;;5047953;28;20053;-66
2021/05/23 07:10:47;;;;;;;0.40;0.30;;;;;;;;;;5042279;28;20440;-67
2021/05/23 07:13:15;;;;;;;0.77;0.40;;;;;;;;;;5044626;28;20041;-66
2021/05/23 07:15:43;;;;;;;0.20;0.20;;;;;;;;;;5041044;28;20049;-67
2021/05/23 07:18:11;;;;;;;0.28;0.20;;;;;;;;;;5047716;28;20140;-67
2021/05/23 07:20:39;;;;;;;1.00;0.30;;;;;;;;;;5046897;28;20045;-65
2021/05/23 07:23:07;;;;;;;0.63;0.30;;;;;;;;;;5031808;28;20045;-66
2021/05/23 07:25:35;;;;;;;0.75;0.30;;;;;;;;;;5049178;28;20063;-65
2021/05/23 07:28:05;;;;;;;0.65;0.30;;;;;;;;;;5047272;28;20484;-65
2021/05/23 07:30:33;;;;;;;0.85;0.40;;;;;;;;;;5048800;28;20083;-65
2021/05/23 07:33:02;;;;;;;0.82;0.30;;;;;;;;;;5049738;28;20048;-65
2021/05/23 07:35:30;;;;;;;0.90;0.40;;;;;;;;;;5050980;28;20045;-66
2021/05/23 07:37:58;;;;;;;0.43;0.20;;;;;;;;;;5048544;28;20049;-66
2021/05/23 07:40:26;;;;;;;0.60;0.40;;;;;;;;;;5048618;28;20061;-65
2021/05/23 07:42:54;;;;;;;0.50;0.20;;;;;;;;;;5049923;28;20481;-65
2021/05/23 07:45:23;;;;;;;1.60;0.60;;;;;;;;;;5047064;28;20045;-65
2021/05/23 07:47:50;;;;;;;1.90;0.45;;;;;;;;;;5047248;28;20114;-65
2021/05/23 07:50:19;;;;;;;1.00;0.45;;;;;;;;;;5049552;28;20468;-66
2021/05/23 07:52:46;;;;;;;2.15;0.43;;;;;;;;;;5049691;28;20045;-65
2021/05/23 07:55:14;;;;;;;0.95;0.40;;;;;;;;;;5049430;28;20436;-64
2021/05/23 07:57:42;;;;;;;0.63;0.40;;;;;;;;;;5049898;28;20053;-64
2021/05/23 08:00:11;;;;;;;1.20;0.30;;;;;;;;;;5048854;28;20048;-66
2021/05/23 08:02:40;;;;;;;1.48;0.50;;;;;;;;;;5048123;28;20553;-65
2021/05/23 08:05:10;;;;;;;1.10;0.40;;;;;;;;;;5049537;28;20081;-65
2021/05/23 08:07:38;;;;;;;1.00;0.40;;;;;;;;;;5049120;28;20049;-67
2021/05/23 08:10:06;;;;;;;1.38;0.30;;;;;;;;;;5049638;28;20072;-65
2021/05/23 08:12:35;;;;;;;0.90;0.40;;;;;;;;;;5050085;28;20067;-65
2021/05/23 08:15:04;;;;;;;0.73;0.30;;;;;;;;;;5048778;28;20416;-66
2021/05/23 08:17:31;;;;;;;1.58;0.85;;;;;;;;;;5060083;28;20048;-66
2021/05/23 08:20:00;;;;;;;0.63;0.40;;;;;;;;;;5045719;28;20131;-66
2021/05/23 08:22:28;;;;;;;0.70;0.40;;;;;;;;;;5049458;28;20063;-66
2021/05/23 08:24:57;;;;;;;0.77;0.40;;;;;;;;;;5050257;28;20056;-65
2021/05/23 08:27:28;;;;;;;1.75;0.40;;;;;;;;;;5048134;28;20041;-65
2021/05/23 08:29:57;;;;;;;0.70;0.45;;;;;;;;;;5040798;28;20084;-66
2021/05/23 08:32:26;;;;;;;2.05;0.50;;;;;;;;;;5049978;28;20100;-66
2021/05/23 08:34:54;;;;;;;1.13;0.40;;;;;;;;;;5049614;28;20438;-65
2021/05/23 08:37:23;;;;;;;0.88;0.43;;;;;;;;;;5048751;28;20742;-65
2021/05/23 08:39:51;;;;;;;0.68;0.50;;;;;;;;;;5049877;28;20060;-66
2021/05/23 08:42:19;;;;;;;2.28;0.50;;;;;;;;;;5050636;28;20052;-65
2021/05/23 08:44:47;;;;;;;0.70;0.50;;;;;;;;;;5058048;28;20561;-65
2021/05/23 08:47:15;;;;;;;1.85;0.45;;;;;;;;;;5069799;28;20060;-65
2021/05/23 08:49:44;;;;;;;1.50;0.85;;;;;;;;;;5053789;28;20519;-66
2021/05/23 08:52:12;;;;;;;2.42;0.60;;;;;;;;;;5049540;28;20071;-66
2021/05/23 08:54:41;;;;;;;2.22;0.45;;;;;;;;;;5050416;28;20084;-66
2021/05/23 08:57:10;;;;;;;1.25;0.40;;;;;;;;;;5047622;28;20472;-66
2021/05/23 08:59:37;;;;;;;1.90;0.43;;;;;;;;;;5049699;28;20072;-65
2021/05/23 09:02:07;;;;;;;2.10;0.60;;;;;;;;;;5048519;28;20103;-66
2021/05/23 09:04:35;;;;;;;1.08;0.38;;;;;;;;;;5049623;28;20393;-66
2021/05/23 09:07:04;;;;;;;0.90;0.40;;;;;;;;;;5049636;28;20476;-66
2021/05/23 09:09:43;;;;;;;3.95;0.65;;;;;;;;;;5050882;28;20048;-66
2021/05/23 09:12:12;;;;;;;3.13;0.80;;;;;;;;;;5050231;28;20048;-67
2021/05/23 09:14:41;;;;;;;2.15;0.52;;;;;;;;;;5047980;28;20494;-66
2021/05/23 09:17:18;;;;;;;2.22;0.70;;;;;;;;;;5048321;28;20401;-66
2021/05/23 09:19:46;;;;;;;1.63;0.60;;;;;;;;;;5049645;28;20053;-66
2021/05/23 09:22:15;;;;;;;2.80;0.60;;;;;;;;;;5048221;28;20048;-66
2021/05/23 09:24:48;;;;;;;3.33;0.80;;;;;;;;;;5046505;28;20416;-68
2021/05/23 09:27:17;;;;;;;1.17;0.60;;;;;;;;;;5049519;28;20080;-67
2021/05/23 09:29:45;;;;;;;3.03;0.70;;;;;;;;;;5048082;28;20057;-67
2021/05/23 09:32:17;;;;;;;0.95;0.55;;;;;;;;;;5048986;28;20099;-66
2021/05/23 09:34:48;;;;;;;1.55;0.60;;;;;;;;;;5049500;28;20049;-66
2021/05/23 09:37:17;;;;;;;2.33;1.17;;;;;;;;;;5048135;28;20547;-66
2021/05/23 09:39:45;;;;;;;1.35;0.60;;;;;;;;;;5049197;28;20057;-66
2021/05/23 09:42:15;;;;;;;1.48;0.80;;;;;;;;;;5050217;28;20045;-66
2021/05/23 09:44:43;;;;;;;1.80;0.47;;;;;;;;;;5049187;28;20055;-65
2021/05/23 09:47:13;;;;;;;2.83;0.82;;;;;;;;;;5048671;28;20053;-66
2021/05/23 09:49:43;;;;;;;0.90;0.50;;;;;;;;;;5049013;28;20481;-65
2021/05/23 09:52:12;;;;;;;1.50;0.50;;;;;;;;;;5049457;28;20073;-66
2021/05/23 09:54:44;;;;;;;2.33;0.70;;;;;;;;;;5049497;28;20127;-65
2021/05/23 09:57:14;;;;;;;1.65;0.60;;;;;;;;;;5048225;28;20057;-66
2021/05/23 09:59:43;;;;;;;3.42;0.50;;;;;;;;;;5048249;28;20056;-65
2021/05/23 10:02:11;;;;;;;1.63;0.43;;;;;;;;;;5049049;28;20079;-65
2021/05/23 10:04:40;;;;;;;1.45;0.57;;;;;;;;;;5048998;28;20095;-65
2021/05/23 10:07:09;;;;;;;1.27;0.77;;;;;;;;;;5048198;28;20045;-66
2021/05/23 10:09:38;;;;;;;1.65;0.50;;;;;;;;;;5050980;28;20045;-66
2021/05/23 10:12:07;;;;;;;2.45;0.63;;;;;;;;;;5052722;28;20463;-66
2021/05/23 10:14:36;;;;;;;1.33;0.40;;;;;;;;;;5052182;28;20060;-66
2021/05/23 10:17:07;;;;;;;2.85;0.80;;;;;;;;;;5052019;28;20060;-66
2021/05/23 10:19:36;;;;;;;2.47;0.70;;;;;;;;;;5052543;28;20291;-67
2021/05/23 10:22:06;;;;;;;1.50;0.73;;;;;;;;;;5052404;28;20532;-66
2021/05/23 10:24:36;;;;;;;2.22;0.80;;;;;;;;;;5052917;28;20475;-67
2021/05/23 10:27:06;;;;;;;2.50;0.73;;;;;;;;;;5052334;28;20045;-66
2021/05/23 10:29:35;;;;;;;3.38;0.98;;;;;;;;;;5052106;28;20095;-66
2021/05/23 10:32:06;;;;;;;1.20;1.10;;;;;;;;;;5052709;28;20088;-66
2021/05/23 10:34:37;;;;;;;3.15;1.05;;;;;;;;;;5052433;28;20052;-66
2021/05/23 10:37:06;;;;;;;1.17;1.00;;;;;;;;;;5052209;28;20057;-66
2021/05/23 10:39:39;;;;;;;1.00;0.50;;;;;;;;;;5051551;28;20126;-66
2021/05/23 10:42:09;;;;;;;3.33;0.75;;;;;;;;;;5047155;28;20060;-66
2021/05/23 10:44:41;;;;;;;3.75;0.80;;;;;;;;;;5051002;28;20072;-66
2021/05/23 10:47:16;;;;;;;1.38;0.77;;;;;;;;;;5051895;28;20048;-66
2021/05/23 10:49:51;;;;;;;1.17;0.60;;;;;;;;;;5052282;28;20049;-66
2021/05/23 10:52:19;;;;;;;3.15;1.02;;;;;;;;;;5052399;28;20045;-67
2021/05/23 10:54:57;;;;;;;1.60;0.65;;;;;;;;;;5052583;28;20053;-66
2021/05/23 10:57:25;;;;;;;1.20;0.60;;;;;;;;;;5051617;28;20445;-66
2021/05/23 10:59:58;;;;;;;2.33;0.73;;;;;;;;;;5053784;28;20492;-66
2021/05/23 11:02:36;;;;;;;2.08;0.90;;;;;;;;;;5071936;28;20088;-66
2021/05/23 11:05:09;;;;;;;1.17;0.50;;;;;;;;;;5057382;28;20667;-66
2021/05/23 11:07:37;;;;;;;1.33;0.50;;;;;;;;;;5044726;28;20077;-66
2021/05/23 11:10:15;;;;;;;1.95;0.70;;;;;;;;;;5052090;28;20093;-66
2021/05/23 11:12:50;;;;;;;2.20;0.68;;;;;;;;;;5051690;28;20045;-67
2021/05/23 11:15:17;;;;;;;1.92;0.65;;;;;;;;;;5051111;28;20397;-66
2021/05/23 11:17:48;;;;;;;1.73;0.30;;;;;;;;;;5051417;28;20088;-67
2021/05/23 11:20:24;;;;;;;2.05;0.57;;;;;;;;;;5066831;28;20132;-66
2021/05/23 11:22:55;;;;;;;3.90;0.95;;;;;;;;;;5047996;28;20065;-66
2021/05/23 11:25:23;;;;;;;1.13;0.60;;;;;;;;;;5052192;28;20482;-67
2021/05/23 11:28:01;;;;;;;2.38;0.47;;;;;;;;;;5051651;28;20045;-66
2021/05/23 11:30:31;;;;;;;0.60;0.40;;;;;;;;;;5052134;28;20049;-67
2021/05/23 11:33:01;;;;;;;2.45;0.77;;;;;;;;;;5052365;28;20496;-66
2021/05/23 11:35:28;;;;;;;0.77;0.40;;;;;;;;;;5061232;28;20075;-66
2021/05/23 11:37:57;;;;;;;0.88;0.45;;;;;;;;;;5053305;28;20159;-67
2021/05/23 11:40:30;;;;;;;1.08;0.45;;;;;;;;;;5051301;28;20088;-67
2021/05/23 11:43:08;;;;;;;1.70;0.50;;;;;;;;;;5051366;28;20045;-67
2021/05/23 11:45:36;;;;;;;1.05;0.50;;;;;;;;;;5050433;28;20102;-67
2021/05/23 11:48:07;;;;;;;3.15;0.50;;;;;;;;;;5050412;28;20080;-66
2021/05/23 11:50:36;;;;;;;1.23;0.40;;;;;;;;;;5052043;28;20156;-67
2021/05/23 11:53:03;;;;;;;1.77;0.50;;;;;;;;;;5051096;28;20164;-67
2021/05/23 11:55:32;;;;;;;3.00;0.55;;;;;;;;;;5051504;28;20041;-67
2021/05/23 11:58:07;;;;;;;1.27;0.80;;;;;;;;;;5064141;28;20080;-67
2021/05/23 12:00:34;;;;;;;1.15;0.60;;;;;;;;;;5041772;28;20090;-67
2021/05/23 12:03:04;;;;;;;1.25;0.30;;;;;;;;;;5054168;28;20049;-66
2021/05/23 12:05:42;;;;;;;2.40;0.60;;;;;;;;;;5051850;28;20045;-67
2021/05/23 12:08:20;;;;;;;3.22;0.60;;;;;;;;;;5050948;28;20049;-66
2021/05/23 12:11:01;;;;;;;1.05;0.50;;;;;;;;;;5051544;28;20116;-67
2021/05/23 12:13:40;;;;;;;1.65;0.60;;;;;;;;;;5051316;28;20037;-67
2021/05/23 12:16:08;;;;;;;2.70;0.43;;;;;;;;;;5050738;28;20053;-67
2021/05/23 12:18:40;;;;;;;1.88;0.50;;;;;;;;;;5050460;28;20045;-67
2021/05/23 12:21:11;;;;;;;2.28;0.47;;;;;;;;;;5051343;28;20091;-67
2021/05/23 12:23:39;;;;;;;1.00;0.50;;;;;;;;;;5050966;28;20052;-67
2021/05/23 12:26:09;;;;;;;1.80;0.50;;;;;;;;;;5050237;28;20052;-66
2021/05/23 12:28:37;;;;;;;1.75;1.13;;;;;;;;;;5050936;28;20088;-66
2021/05/23 12:31:06;;;;;;;2.17;0.88;;;;;;;;;;5049357;28;20132;-66
2021/05/23 12:33:35;;;;;;;1.30;0.60;;;;;;;;;;5050367;28;20083;-67
2021/05/23 12:36:07;;;;;;;0.90;0.60;;;;;;;;;;5050374;28;20048;-67
2021/05/23 12:38:37;;;;;;;3.80;0.60;;;;;;;;;;5050761;28;20045;-66
2021/05/23 12:41:20;;;;;;;1.75;0.60;;;;;;;;;;2514841;28;10024535;-67
2021/05/23 12:43:47;;;;;;;0.63;0.47;;;;;;;;;;3308293;28;10001504;-67
2021/05/23 12:46:15;;;;;;;1.88;0.65;;;;;;;;;;5049597;28;20064;-66
2021/05/23 12:48:44;;;;;;;1.63;0.80;;;;;;;;;;5050524;28;20048;-66
2021/05/23 12:51:13;;;;;;;2.38;0.50;;;;;;;;;;5050176;28;20067;-66
2021/05/23 12:53:46;;;;;;;3.50;0.70;;;;;;;;;;5050149;28;20168;-66
2021/05/23 12:56:16;;;;;;;0.75;0.40;;;;;;;;;;5049993;28;20083;-66
2021/05/23 12:58:48;;;;;;;0.55;0.45;;;;;;;;;;5050550;28;20546;-66
2021/05/23 13:01:17;;;;;;;4.75;0.68;;;;;;;;;;5049565;28;20056;-68
2021/05/23 13:03:53;;;;;;;1.58;0.52;;;;;;;;;;5042964;28;20087;-67
2021/05/23 13:06:21;;;;;;;3.28;0.70;;;;;;;;;;5049666;28;20504;-66
2021/05/23 13:08:57;;;;;;;1.15;0.60;;;;;;;;;;5050408;28;20051;-68
2021/05/23 13:11:25;;;;;;;2.35;0.68;;;;;;;;;;5050068;28;20777;-66
2021/05/23 13:13:53;;;;;;;1.02;0.50;;;;;;;;;;5049584;28;20561;-67
2021/05/23 13:16:27;;;;;;;1.92;0.50;;;;;;;;;;5050010;28;20048;-67
2021/05/23 13:18:54;;;;;;;2.45;0.68;;;;;;;;;;5049856;28;20060;-66
2021/05/23 13:21:26;;;;;;;2.10;0.40;;;;;;;;;;5049848;28;20057;-67
2021/05/23 13:23:56;;;;;;;2.55;0.63;;;;;;;;;;5048866;28;20139;-66
2021/05/23 13:26:25;;;;;;;2.80;0.50;;;;;;;;;;5056650;28;20073;-66
2021/05/23 13:28:53;;;;;;;0.80;0.40;;;;;;;;;;5043189;28;20090;-66
2021/05/23 13:31:21;;;;;;;1.33;0.60;;;;;;;;;;5049771;28;20057;-66
2021/05/23 13:33:49;;;;;;;4.68;0.65;;;;;;;;;;5048627;28;20072;-65
2021/05/23 13:36:17;;;;;;;2.28;0.47;;;;;;;;;;5061359;28;20404;-66
2021/05/23 13:38:45;;;;;;;0.85;0.50;;;;;;;;;;5049767;28;20118;-67
2021/05/23 13:41:13;;;;;;;1.88;0.60;;;;;;;;;;5048640;28;20579;-65
2021/05/23 13:43:42;;;;;;;1.67;0.43;;;;;;;;;;5050844;28;20045;-65
2021/05/23 13:46:10;;;;;;;3.15;0.57;;;;;;;;;;5053205;28;20088;-66
2021/05/23 13:48:39;;;;;;;1.67;0.40;;;;;;;;;;5053117;28;20049;-66
2021/05/23 13:51:07;;;;;;;1.30;0.40;;;;;;;;;;5054490;28;20052;-65
2021/05/23 13:53:35;;;;;;;3.35;0.50;;;;;;;;;;5053365;28;20049;-67
2021/05/23 13:56:03;;;;;;;0.80;0.28;;;;;;;;;;5050874;28;20132;-66
2021/05/23 13:58:31;;;;;;;1.20;0.95;;;;;;;;;;5056554;28;20573;-65
2021/05/23 14:01:00;;;;;;;1.17;0.50;;;;;;;;;;5053332;28;20127;-66
2021/05/23 14:03:28;;;;;;;1.30;0.43;;;;;;;;;;5052949;28;20049;-66
2021/05/23 14:05:56;;;;;;;2.58;0.55;;;;;;;;;;5053595;28;20077;-65
2021/05/23 14:08:25;;;;;;;1.92;0.60;;;;;;;;;;5051570;28;20435;-65
2021/05/23 14:10:55;;;;;;;0.43;0.30;;;;;;;;;;5046924;28;20148;-65
2021/05/23 14:13:24;;;;;;;1.88;0.90;;;;;;;;;;5046012;28;20091;-66
2021/05/23 14:15:53;;;;;;;2.10;0.70;;;;;;;;;;5052772;28;20079;-66
2021/05/23 14:18:21;;;;;;;2.47;0.63;;;;;;;;;;5052506;28;20048;-65
2021/05/23 14:20:50;;;;;;;0.63;0.50;;;;;;;;;;5052891;28;20072;-65
2021/05/23 14:23:18;;;;;;;1.70;0.60;;;;;;;;;;5052715;28;20053;-68
2021/05/23 14:25:46;;;;;;;1.77;0.60;;;;;;;;;;5052814;28;20049;-67
2021/05/23 14:28:14;;;;;;;0.77;0.30;;;;;;;;;;5051286;28;20049;-66
2021/05/23 14:30:42;;;;;;;3.63;0.50;;;;;;;;;;5052467;28;20053;-66
2021/05/23 14:33:10;;;;;;;1.75;0.60;;;;;;;;;;5033332;28;20457;-66
2021/05/23 14:35:39;;;;;;;2.83;0.57;;;;;;;;;;5036976;28;20525;-67
2021/05/23 14:38:07;;;;;;;1.60;0.60;;;;;;;;;;5052621;28;20076;-65
2021/05/23 14:40:35;;;;;;;2.20;0.47;;;;;;;;;;5052176;28;20238;-66
2021/05/23 14:43:04;;;;;;;1.88;0.40;;;;;;;;;;5052181;28;20077;-66
2021/05/23 14:45:32;;;;;;;0.88;0.40;;;;;;;;;;5065693;28;20051;-66
2021/05/23 14:48:02;;;;;;;1.75;0.50;;;;;;;;;;5051581;28;20045;-66
2021/05/23 14:50:31;;;;;;;1.77;0.50;;;;;;;;;;5065750;28;20128;-67
2021/05/23 14:53:00;;;;;;;4.70;0.60;;;;;;;;;;5051663;28;20053;-66
2021/05/23 14:55:43;;;;;;;3.33;0.50;;;;;;;;;;5050545;28;20508;-66